Time;durP1;ratioP1;P1;durP2;ratioP2;P2;SDS_P1;SDS_P2;PMS_P1;PMS_P2;Temp;Humidity;BMP_temperature;BMP_pressure;BME280_temperature;BME280_humidity;BME280_pressure;Samples;Min_cycle;Max_cycle;Signal;HPM_P1;HPM_P2
2024/04/01 00:00:25;;;;;;;;;;;12.00;83.30;;;;;;5092918;28;19932;-69
2024/04/01 00:02:58;;;;;;;;;;;12.00;83.30;;;;;;5096505;28;20063;-68
2024/04/01 00:05:30;;;;;;;;;;;12.00;83.40;;;;;;5093824;28;20294;-69
2024/04/01 00:08:03;;;;;;;;;;;11.90;83.50;;;;;;5094562;28;19930;-69
2024/04/01 00:10:36;;;;;;;;;;;11.90;83.50;;;;;;5093399;28;19934;-70
2024/04/01 00:13:11;;;;;;;;;;;11.90;83.60;;;;;;5096063;28;19932;-70
2024/04/01 00:15:44;;;;;;;;;;;11.90;83.70;;;;;;5087531;28;19928;-70
2024/04/01 00:18:17;;;;;;;;;;;11.80;83.80;;;;;;5093057;28;19931;-68
2024/04/01 00:21:01;;;;;;;;;;;11.90;83.80;;;;;;5095597;28;19964;-68
2024/04/01 00:23:36;;;;;;;;;;;11.80;83.80;;;;;;5097227;28;20286;-68
2024/04/01 00:26:16;;;;;;;;;;;11.90;83.80;;;;;;5094731;28;19943;-69
2024/04/01 00:28:50;;;;;;;;;;;11.90;83.80;;;;;;5089973;28;19959;-69
2024/04/01 00:31:29;;;;;;;;;;;11.90;83.90;;;;;;5092789;28;20393;-67
2024/04/01 00:34:09;;;;;;;;;;;11.90;83.90;;;;;;5089298;28;20014;-68
2024/04/01 00:36:41;;;;;;;;;;;11.80;83.90;;;;;;5092035;28;19924;-69
2024/04/01 00:39:08;;;;;;;;;;;11.80;84.10;;;;;;5091738;28;19924;-69
2024/04/01 00:41:40;;;;;;;;;;;11.80;84.20;;;;;;5095464;28;19924;-69
2024/04/01 00:44:14;;;;;;;;;;;11.80;84.30;;;;;;5095606;28;19989;-65
2024/04/01 00:46:47;;;;;;;;;;;11.80;84.30;;;;;;5086382;28;19931;-60
2024/04/01 00:49:21;;;;;;;;;;;11.80;84.30;;;;;;5087679;28;19967;-62
2024/04/01 00:51:53;;;;;;;;;;;11.80;84.30;;;;;;5089730;28;19939;-62
2024/04/01 00:54:34;;;;;;;;;;;11.80;84.40;;;;;;5095389;28;19931;-62
2024/04/01 00:57:06;;;;;;;;;;;11.80;84.40;;;;;;5097880;28;19924;-61
2024/04/01 00:59:41;;;;;;;;;;;11.80;84.50;;;;;;5097944;28;19930;-62
2024/04/01 01:02:13;;;;;;;;;;;11.80;84.60;;;;;;5094815;28;19975;-61
2024/04/01 01:04:47;;;;;;;;;;;11.80;84.60;;;;;;5096579;28;19939;-63
2024/04/01 01:07:20;;;;;;;;;;;11.80;84.50;;;;;;5093812;28;20280;-61
2024/04/01 01:10:00;;;;;;;;;;;11.80;84.70;;;;;;5090471;28;19932;-62
2024/04/01 01:12:32;;;;;;;;;;;11.80;84.60;;;;;;5096485;28;20008;-61
2024/04/01 01:15:09;;;;;;;;;;;11.80;84.70;;;;;;5097011;28;20056;-62
2024/04/01 01:17:41;;;;;;;;;;;11.80;84.60;;;;;;5091786;28;19931;-62
2024/04/01 01:20:14;;;;;;;;;;;11.80;84.50;;;;;;5095918;28;19981;-63
2024/04/01 01:22:47;;;;;;;;;;;11.80;84.50;;;;;;5093938;28;19928;-64
2024/04/01 01:25:22;;;;;;;;;;;11.80;84.50;;;;;;5092637;28;19931;-62
2024/04/01 01:27:54;;;;;;;;;;;11.70;84.60;;;;;;5095297;28;19951;-63
2024/04/01 01:30:27;;;;;;;;;;;11.70;84.60;;;;;;5095638;28;19931;-63
2024/04/01 01:33:00;;;;;;;;;;;11.70;84.60;;;;;;5096379;28;19931;-62
2024/04/01 01:35:27;;;;;;;;;;;11.80;84.60;;;;;;5090457;28;19924;-62
2024/04/01 01:38:02;;;;;;;;;;;11.70;84.70;;;;;;5096758;28;19924;-61
2024/04/01 01:40:35;;;;;;;;;;;11.70;84.70;;;;;;5095236;28;19928;-62
2024/04/01 01:43:07;;;;;;;;;;;11.70;84.70;;;;;;5088154;28;19963;-61
2024/04/01 01:45:40;;;;;;;;;;;11.70;84.80;;;;;;5095642;28;19924;-62
2024/04/01 01:48:12;;;;;;;;;;;11.70;84.90;;;;;;5093304;28;20020;-64
2024/04/01 01:50:45;;;;;;;;;;;11.70;84.90;;;;;;5097320;28;20386;-61
2024/04/01 01:53:19;;;;;;;;;;;11.70;84.90;;;;;;5096075;28;19976;-68
2024/04/01 01:55:52;;;;;;;;;;;11.70;85.00;;;;;;5093198;28;20436;-68
2024/04/01 01:58:24;;;;;;;;;;;11.70;85.00;;;;;;5095977;28;20015;-70
2024/04/01 02:00:57;;;;;;;;;;;11.70;85.00;;;;;;5097936;28;20011;-69
2024/04/01 02:03:29;;;;;;;;;;;11.70;85.00;;;;;;5093427;28;19923;-69
2024/04/01 02:06:02;;;;;;;;;;;11.70;85.10;;;;;;5089794;28;19950;-69
2024/04/01 02:08:42;;;;;;;;;;;11.70;85.10;;;;;;5091290;28;19951;-69
2024/04/01 02:11:15;;;;;;;;;;;11.70;85.20;;;;;;5085829;28;19930;-68
2024/04/01 02:13:47;;;;;;;;;;;11.70;85.00;;;;;;5094072;28;20366;-69
2024/04/01 02:16:14;;;;;;;;;;;11.70;85.00;;;;;;5094317;28;20054;-69
2024/04/01 02:18:47;;;;;;;;;;;11.70;85.20;;;;;;5088173;28;19935;-68
2024/04/01 02:21:27;;;;;;;;;;;11.70;85.30;;;;;;5075138;28;19935;-70
2024/04/01 02:24:01;;;;;;;;;;;11.70;85.40;;;;;;5085713;28;19928;-70
2024/04/01 02:26:34;;;;;;;;;;;11.70;85.50;;;;;;5095439;28;19931;-69
2024/04/01 02:29:06;;;;;;;;;;;11.70;85.50;;;;;;5084146;28;19939;-68
2024/04/01 02:31:39;;;;;;;;;;;11.70;85.50;;;;;;5089543;28;19935;-68
2024/04/01 02:34:11;;;;;;;;;;;11.60;85.80;;;;;;5089581;28;19934;-70
2024/04/01 02:36:44;;;;;;;;;;;11.60;85.90;;;;;;5096731;28;20015;-69
2024/04/01 02:43:00;;;;;;;;;;;11.60;86.10;;;;;;5044347;28;20006;-69
2024/04/01 02:45:32;;;;;;;;;;;11.60;86.10;;;;;;5094215;28;19943;-69
2024/04/01 02:48:05;;;;;;;;;;;11.60;86.20;;;;;;5088180;28;19985;-68
2024/04/01 02:50:37;;;;;;;;;;;11.60;86.30;;;;;;5093207;28;20387;-68
2024/04/01 02:53:10;;;;;;;;;;;11.60;86.30;;;;;;5094728;28;19928;-68
2024/04/01 02:55:36;;;;;;;;;;;11.60;86.40;;;;;;5093672;28;19935;-68
2024/04/01 02:58:10;;;;;;;;;;;11.60;86.30;;;;;;5091278;28;20022;-69
2024/04/01 03:00:45;;;;;;;;;;;11.60;86.40;;;;;;5095163;28;19977;-69
2024/04/01 03:03:21;;;;;;;;;;;11.60;86.40;;;;;;5094846;28;19927;-63
2024/04/01 03:05:53;;;;;;;;;;;11.60;86.40;;;;;;5088073;28;19928;-69
2024/04/01 03:08:26;;;;;;;;;;;11.60;86.40;;;;;;5093012;28;19924;-69
2024/04/01 03:10:58;;;;;;;;;;;11.60;86.50;;;;;;5095553;28;20458;-68
2024/04/01 03:13:33;;;;;;;;;;;11.60;86.70;;;;;;5096165;28;19924;-68
2024/04/01 03:16:06;;;;;;;;;;;11.60;86.90;;;;;;5094827;28;19928;-68
2024/04/01 03:18:40;;;;;;;;;;;11.60;86.80;;;;;;5096027;28;19924;-69
2024/04/01 03:21:13;;;;;;;;;;;11.50;86.90;;;;;;5095663;28;19924;-66
2024/04/01 03:23:53;;;;;;;;;;;11.40;87.10;;;;;;5096922;28;19931;-66
2024/04/01 03:26:25;;;;;;;;;;;11.40;87.30;;;;;;5098701;28;19930;-68
2024/04/01 03:28:53;;;;;;;;;;;11.40;87.30;;;;;;5100202;28;19924;-69
2024/04/01 03:31:25;;;;;;;;;;;11.50;87.30;;;;;;5098824;28;19924;-67
2024/04/01 03:33:58;;;;;;;;;;;11.40;87.40;;;;;;5096764;28;19944;-69
2024/04/01 03:36:30;;;;;;;;;;;11.40;87.30;;;;;;5099481;28;19924;-69
2024/04/01 03:39:04;;;;;;;;;;;11.40;87.40;;;;;;5094916;28;20390;-68
2024/04/01 03:41:37;;;;;;;;;;;11.40;87.10;;;;;;5096577;28;19928;-69
2024/04/01 03:44:12;;;;;;;;;;;11.50;87.20;;;;;;5088306;28;19951;-68
2024/04/01 03:46:44;;;;;;;;;;;11.40;87.10;;;;;;5094385;28;19927;-68
2024/04/01 03:49:11;;;;;;;;;;;11.50;87.10;;;;;;5097409;28;19924;-67
2024/04/01 03:51:43;;;;;;;;;;;11.50;87.10;;;;;;5092877;28;19928;-69
2024/04/01 03:54:16;;;;;;;;;;;11.50;87.20;;;;;;5098207;28;19931;-67
2024/04/01 03:56:49;;;;;;;;;;;11.50;87.20;;;;;;5098478;28;20038;-67
2024/04/01 03:59:23;;;;;;;;;;;11.50;87.10;;;;;;5097018;28;19924;-68
2024/04/01 04:01:56;;;;;;;;;;;11.50;87.10;;;;;;5096784;28;20664;-70
2024/04/01 04:04:29;;;;;;;;;;;11.50;87.00;;;;;;5097204;28;19928;-67
2024/04/01 04:07:01;;;;;;;;;;;11.50;87.20;;;;;;5095872;28;19939;-67
2024/04/01 04:09:34;;;;;;;;;;;11.40;87.30;;;;;;5098573;28;19938;-68
2024/04/01 04:12:06;;;;;;;;;;;11.40;87.40;;;;;;5091362;28;20413;-68
2024/04/01 04:14:40;;;;;;;;;;;11.40;87.40;;;;;;5095836;28;20002;-68
2024/04/01 04:17:13;;;;;;;;;;;11.40;87.40;;;;;;5097448;28;20335;-68
2024/04/01 04:19:46;;;;;;;;;;;11.40;87.40;;;;;;5097381;28;19949;-68
2024/04/01 04:22:25;;;;;;;;;;;11.40;87.40;;;;;;5097508;28;19967;-68
2024/04/01 04:24:58;;;;;;;;;;;11.40;87.50;;;;;;5060398;28;19932;-68
2024/04/01 04:27:31;;;;;;;;;;;11.40;87.60;;;;;;5091966;28;19985;-69
2024/04/01 04:30:08;;;;;;;;;;;11.40;87.60;;;;;;5091934;28;19932;-67
2024/04/01 04:32:40;;;;;;;;;;;11.40;87.60;;;;;;5091359;28;19932;-68
2024/04/01 04:35:13;;;;;;;;;;;11.40;87.60;;;;;;5092455;28;19927;-68
2024/04/01 04:37:39;;;;;;;;;;;11.40;87.50;;;;;;5098648;28;19963;-69
2024/04/01 04:40:14;;;;;;;;;;;11.40;87.60;;;;;;5099259;28;19932;-68
2024/04/01 04:42:46;;;;;;;;;;;11.30;87.60;;;;;;5097477;28;19931;-68
2024/04/01 04:45:22;;;;;;;;;;;11.40;87.70;;;;;;5095766;28;20374;-67
2024/04/01 04:47:54;;;;;;;;;;;11.40;87.80;;;;;;5097849;28;19928;-69
2024/04/01 04:50:27;;;;;;;;;;;11.40;87.70;;;;;;5093281;28;19923;-69
2024/04/01 04:52:59;;;;;;;;;;;11.40;87.80;;;;;;5095079;28;20409;-67
2024/04/01 04:55:26;;;;;;;;;;;11.30;87.80;;;;;;5098741;28;19924;-66
2024/04/01 04:57:58;;;;;;;;;;;11.30;87.90;;;;;;5093775;28;20436;-67
2024/04/01 05:00:26;;;;;;;;;;;11.30;88.00;;;;;;5087888;28;19932;-69
2024/04/01 05:02:58;;;;;;;;;;;11.20;88.10;;;;;;5094631;28;19928;-68
2024/04/01 05:05:32;;;;;;;;;;;11.30;88.10;;;;;;5096067;28;19924;-68
2024/04/01 05:08:04;;;;;;;;;;;11.30;88.10;;;;;;5097410;28;19935;-68
2024/04/01 05:10:45;;;;;;;;;;;11.30;88.20;;;;;;5096614;28;19928;-67
2024/04/01 05:13:17;;;;;;;;;;;11.20;88.10;;;;;;5090282;28;20006;-67
2024/04/01 05:15:51;;;;;;;;;;;11.30;88.20;;;;;;5095407;28;19963;-68
2024/04/01 05:18:26;;;;;;;;;;;11.20;88.20;;;;;;5093100;28;19928;-68
2024/04/01 05:20:59;;;;;;;;;;;11.20;88.20;;;;;;5095776;28;19966;-68
2024/04/01 05:23:31;;;;;;;;;;;11.20;88.30;;;;;;5094761;28;19935;-57
2024/04/01 05:26:05;;;;;;;;;;;11.20;88.30;;;;;;5093061;28;19946;-59
2024/04/01 05:28:37;;;;;;;;;;;11.20;88.50;;;;;;5091331;28;20005;-57
2024/04/01 05:31:05;;;;;;;;;;;11.20;88.50;;;;;;5084379;28;19959;-57
2024/04/01 05:33:37;;;;;;;;;;;11.30;88.50;;;;;;5095738;28;19931;-57
2024/04/01 05:36:04;;;;;;;;;;;11.30;88.50;;;;;;5095942;28;19932;-58
2024/04/01 05:38:36;;;;;;;;;;;11.20;88.50;;;;;;5093179;28;19932;-59
2024/04/01 05:41:09;;;;;;;;;;;11.30;88.50;;;;;;5100190;28;19998;-58
2024/04/01 05:43:41;;;;;;;;;;;11.20;88.60;;;;;;5095200;28;19923;-58
2024/04/01 05:46:16;;;;;;;;;;;11.30;88.50;;;;;;5089497;28;19928;-59
2024/04/01 05:48:43;;;;;;;;;;;11.30;88.50;;;;;;5093234;28;19925;-58
2024/04/01 05:51:16;;;;;;;;;;;11.30;88.50;;;;;;5094084;28;20019;-59
2024/04/01 05:53:49;;;;;;;;;;;11.20;88.60;;;;;;5096617;28;19928;-59
2024/04/01 05:56:22;;;;;;;;;;;11.20;88.70;;;;;;5097230;28;19924;-59
2024/04/01 05:58:54;;;;;;;;;;;11.30;88.60;;;;;;5096825;28;20007;-58
2024/04/01 06:01:22;;;;;;;;;;;11.30;88.50;;;;;;5088594;28;19936;-58
2024/04/01 06:03:54;;;;;;;;;;;11.30;88.60;;;;;;5093226;28;20007;-59
2024/04/01 06:06:27;;;;;;;;;;;11.30;88.60;;;;;;5097430;28;20446;-59
2024/04/01 06:09:00;;;;;;;;;;;11.30;88.60;;;;;;5096130;28;19928;-63
2024/04/01 06:11:33;;;;;;;;;;;11.30;88.60;;;;;;5092584;28;19985;-58
2024/04/01 06:14:06;;;;;;;;;;;11.30;88.70;;;;;;5095096;28;19928;-58
2024/04/01 06:16:47;;;;;;;;;;;11.30;88.80;;;;;;5096259;28;19939;-58
2024/04/01 06:19:19;;;;;;;;;;;11.30;88.90;;;;;;5093569;28;19941;-58
2024/04/01 06:21:53;;;;;;;;;;;11.30;88.90;;;;;;5094742;28;20393;-58
2024/04/01 06:24:32;;;;;;;;;;;11.20;88.90;;;;;;5096158;28;20416;-60
2024/04/01 06:27:05;;;;;;;;;;;11.20;88.90;;;;;;5096944;28;19942;-60
2024/04/01 06:29:31;;;;;;;;;;;11.20;88.90;;;;;;5094452;28;19940;-62
2024/04/01 06:32:06;;;;;;;;;;;11.20;89.00;;;;;;5092412;28;19928;-58
2024/04/01 06:34:46;;;;;;;;;;;11.10;89.00;;;;;;5095558;28;19945;-63
2024/04/01 06:37:19;;;;;;;;;;;11.20;89.10;;;;;;5093998;28;19923;-61
2024/04/01 06:39:52;;;;;;;;;;;11.20;89.20;;;;;;5096775;28;20017;-61
2024/04/01 06:42:25;;;;;;;;;;;11.20;89.20;;;;;;5096793;28;20345;-62
2024/04/01 06:44:57;;;;;;;;;;;11.10;89.10;;;;;;5095569;28;19962;-61
2024/04/01 06:47:32;;;;;;;;;;;11.20;89.20;;;;;;5095464;28;20014;-63
2024/04/01 06:50:11;;;;;;;;;;;11.20;89.20;;;;;;5096571;28;20294;-60
2024/04/01 06:52:44;;;;;;;;;;;11.20;89.30;;;;;;5093766;28;20294;-60
2024/04/01 06:55:16;;;;;;;;;;;11.20;89.40;;;;;;5095583;28;19932;-60
2024/04/01 06:57:49;;;;;;;;;;;11.20;89.40;;;;;;5095306;28;20020;-60
2024/04/01 07:00:21;;;;;;;;;;;11.20;89.40;;;;;;5094705;28;20026;-63
2024/04/01 07:02:56;;;;;;;;;;;11.20;89.30;;;;;;5095119;28;22593;-63
2024/04/01 07:05:29;;;;;;;;;;;11.30;89.10;;;;;;5094610;28;19932;-61
2024/04/01 07:08:02;;;;;;;;;;;11.30;89.20;;;;;;5091728;28;19932;-60
2024/04/01 07:10:34;;;;;;;;;;;11.30;89.10;;;;;;5094552;28;19928;-61
2024/04/01 07:13:07;;;;;;;;;;;11.40;89.20;;;;;;5094766;28;19930;-60
2024/04/01 07:15:39;;;;;;;;;;;11.30;89.30;;;;;;5095060;28;19924;-61
2024/04/01 07:18:14;;;;;;;;;;;11.30;89.30;;;;;;5095998;28;20316;-60
2024/04/01 07:20:46;;;;;;;;;;;11.30;89.30;;;;;;5094089;28;19985;-60
2024/04/01 07:23:19;;;;;;;;;;;11.30;89.30;;;;;;5091813;28;20412;-61
2024/04/01 07:25:51;;;;;;;;;;;11.30;89.40;;;;;;5096905;28;20322;-60
2024/04/01 07:28:24;;;;;;;;;;;11.30;89.40;;;;;;5095739;28;19928;-60
2024/04/01 07:31:02;;;;;;;;;;;11.30;89.40;;;;;;5092573;28;20000;-61
2024/04/01 07:33:37;;;;;;;;;;;11.30;89.40;;;;;;5093161;28;19972;-61
2024/04/01 07:36:16;;;;;;;;;;;11.30;89.50;;;;;;5096200;28;19998;-61
2024/04/01 07:38:49;;;;;;;;;;;11.30;89.50;;;;;;5094956;28;20018;-61
2024/04/01 07:41:21;;;;;;;;;;;11.30;89.60;;;;;;5097174;28;19970;-62
2024/04/01 07:43:54;;;;;;;;;;;11.40;89.70;;;;;;5098046;28;19932;-62
2024/04/01 07:46:26;;;;;;;;;;;11.30;89.60;;;;;;5094178;28;19928;-62
2024/04/01 07:49:01;;;;;;;;;;;11.40;89.80;;;;;;5095139;28;19924;-61
2024/04/01 07:51:33;;;;;;;;;;;11.30;89.80;;;;;;5091014;28;20022;-62
2024/04/01 07:54:06;;;;;;;;;;;11.30;89.80;;;;;;5093855;28;19951;-68
2024/04/01 07:56:38;;;;;;;;;;;11.30;89.80;;;;;;5091854;28;20554;-67
2024/04/01 07:59:11;;;;;;;;;;;11.30;89.80;;;;;;5095038;28;19938;-67
2024/04/01 08:01:37;;;;;;;;;;;11.40;89.80;;;;;;5093413;28;19931;-66
2024/04/01 08:04:13;;;;;;;;;;;11.40;89.80;;;;;;5092733;28;19928;-68
2024/04/01 08:06:45;;;;;;;;;;;11.40;89.70;;;;;;5094669;28;19934;-68
2024/04/01 08:09:18;;;;;;;;;;;11.40;89.70;;;;;;5091878;28;19949;-68
2024/04/01 08:11:50;;;;;;;;;;;11.40;89.80;;;;;;5095406;28;19960;-68
2024/04/01 08:14:23;;;;;;;;;;;11.40;89.80;;;;;;5097648;28;19931;-68
2024/04/01 08:17:02;;;;;;;;;;;11.50;89.80;;;;;;5096666;28;20011;-68
2024/04/01 08:19:37;;;;;;;;;;;11.50;89.80;;;;;;5095930;28;20010;-67
2024/04/01 08:22:09;;;;;;;;;;;11.60;89.60;;;;;;5086872;28;19981;-67
2024/04/01 08:24:42;;;;;;;;;;;11.60;89.50;;;;;;5094747;28;19942;-67
2024/04/01 08:27:16;;;;;;;;;;;11.70;89.30;;;;;;5096454;28;19940;-67
2024/04/01 08:29:49;;;;;;;;;;;11.70;89.70;;;;;;5094023;28;19924;-67
2024/04/01 08:32:21;;;;;;;;;;;11.70;89.30;;;;;;5091462;28;19924;-66
2024/04/01 08:35:03;;;;;;;;;;;11.70;89.10;;;;;;5093931;28;19951;-68
2024/04/01 08:37:35;;;;;;;;;;;11.70;89.20;;;;;;5094941;28;19935;-68
2024/04/01 08:40:09;;;;;;;;;;;11.70;89.20;;;;;;5095082;28;20008;-67
2024/04/01 08:42:43;;;;;;;;;;;11.70;89.10;;;;;;5096203;28;19935;-68
2024/04/01 08:45:16;;;;;;;;;;;11.70;89.40;;;;;;5094742;28;19924;-68
2024/04/01 08:47:50;;;;;;;;;;;11.70;89.50;;;;;;5097120;28;19930;-69
2024/04/01 08:50:31;;;;;;;;;;;11.70;89.50;;;;;;5096444;28;19981;-68
2024/04/01 08:53:07;;;;;;;;;;;11.70;89.40;;;;;;5094053;28;20001;-66
2024/04/01 08:55:41;;;;;;;;;;;11.60;89.30;;;;;;5097081;28;20499;-68
2024/04/01 08:58:14;;;;;;;;;;;11.70;89.50;;;;;;5098716;28;20374;-68
2024/04/01 09:00:48;;;;;;;;;;;11.70;89.60;;;;;;5096827;28;19970;-67
2024/04/01 09:03:20;;;;;;;;;;;11.70;89.70;;;;;;5096997;28;19927;-68
2024/04/01 09:05:57;;;;;;;;;;;11.60;89.50;;;;;;5085740;28;20015;-68
2024/04/01 09:08:29;;;;;;;;;;;11.60;89.70;;;;;;5093831;28;19927;-67
2024/04/01 09:11:02;;;;;;;;;;;11.60;89.80;;;;;;5099862;28;20264;-67
2024/04/01 09:13:34;;;;;;;;;;;11.60;90.00;;;;;;5096712;28;19931;-73
2024/04/01 09:16:08;;;;;;;;;;;11.60;90.00;;;;;;5096684;28;19932;-71
2024/04/01 09:18:40;;;;;;;;;;;11.60;90.10;;;;;;5097109;28;19957;-73
2024/04/01 09:21:17;;;;;;;;;;;11.60;90.20;;;;;;5096181;28;19934;-71
2024/04/01 09:23:51;;;;;;;;;;;11.60;90.10;;;;;;5092596;28;20383;-72
2024/04/01 09:26:32;;;;;;;;;;;11.60;90.20;;;;;;5096973;28;19947;-72
2024/04/01 09:29:04;;;;;;;;;;;11.60;90.10;;;;;;5099527;28;19974;-72
2024/04/01 09:31:37;;;;;;;;;;;11.60;90.20;;;;;;5097430;28;19989;-73
2024/04/01 09:34:10;;;;;;;;;;;11.60;90.20;;;;;;5096656;28;19931;-73
2024/04/01 09:36:52;;;;;;;;;;;11.60;90.20;;;;;;5098510;28;19927;-72
2024/04/01 09:39:25;;;;;;;;;;;11.60;90.30;;;;;;5096557;28;19932;-72
2024/04/01 09:41:58;;;;;;;;;;;11.60;90.30;;;;;;5098879;28;19928;-71
2024/04/01 09:44:31;;;;;;;;;;;11.60;90.20;;;;;;5099350;28;20388;-72
2024/04/01 09:47:04;;;;;;;;;;;11.60;90.10;;;;;;5095752;28;19967;-71
2024/04/01 09:49:39;;;;;;;;;;;11.60;90.00;;;;;;5092372;28;19932;-72
2024/04/01 09:52:14;;;;;;;;;;;11.60;90.10;;;;;;5096796;28;20374;-71
2024/04/01 09:54:49;;;;;;;;;;;11.60;90.00;;;;;;5097581;28;20379;-72
2024/04/01 09:57:37;;;;;;;;;;;11.60;89.80;;;;;;5097275;28;19928;-71
2024/04/01 10:00:15;;;;;;;;;;;11.50;89.90;;;;;;5086845;28;20427;-73
2024/04/01 10:03:09;;;;;;;;;;;11.50;90.00;;;;;;5098302;28;19931;-72
2024/04/01 10:06:00;;;;;;;;;;;11.50;89.90;;;;;;5097045;28;19923;-73
2024/04/01 10:09:06;;;;;;;;;;;11.50;89.80;;;;;;5094735;28;19939;-71
2024/04/01 10:11:50;;;;;;;;;;;11.50;89.60;;;;;;5096712;28;19931;-73
2024/04/01 10:14:49;;;;;;;;;;;11.50;89.50;;;;;;5097092;28;20345;-72
2024/04/01 10:17:41;;;;;;;;;;;11.50;89.30;;;;;;5095257;28;20378;-73
2024/04/01 10:20:19;;;;;;;;;;;11.50;89.20;;;;;;5098102;28;19993;-70
2024/04/01 10:23:15;;;;;;;;;;;11.50;89.10;;;;;;5091542;28;19927;-71
2024/04/01 10:26:10;;;;;;;;;;;11.50;89.10;;;;;;5094195;28;19924;-69
2024/04/01 10:29:00;;;;;;;;;;;11.60;89.00;;;;;;5094753;28;19943;-68
2024/04/01 10:31:52;;;;;;;;;;;11.60;88.80;;;;;;5089789;28;19939;-67
2024/04/01 10:34:43;;;;;;;;;;;11.70;88.60;;;;;;5081945;28;19943;-67
2024/04/01 10:37:28;;;;;;;;;;;11.80;88.50;;;;;;5073136;28;19932;-67
2024/04/01 10:40:07;;;;;;;;;;;11.90;88.20;;;;;;5079057;28;19928;-67
2024/04/01 10:42:53;;;;;;;;;;;12.00;87.80;;;;;;5097415;28;19927;-67
2024/04/01 10:45:39;;;;;;;;;;;12.10;87.50;;;;;;5087765;28;19931;-68
2024/04/01 10:48:18;;;;;;;;;;;12.10;87.10;;;;;;5086782;28;19931;-67
2024/04/01 10:51:14;;;;;;;;;;;12.10;86.80;;;;;;5084778;28;20283;-67
2024/04/01 10:53:58;;;;;;;;;;;12.10;86.70;;;;;;5086489;28;20449;-67
2024/04/01 10:56:45;;;;;;;;;;;12.10;86.70;;;;;;5089333;28;19965;-68
2024/04/01 10:59:29;;;;;;;;;;;12.20;86.40;;;;;;5095853;28;19924;-67
2024/04/01 11:02:13;;;;;;;;;;;12.30;86.10;;;;;;5086665;28;19939;-66
2024/04/01 11:04:59;;;;;;;;;;;12.50;86.00;;;;;;5086318;28;20004;-67
2024/04/01 11:07:43;;;;;;;;;;;12.60;85.40;;;;;;5093689;28;19928;-68
2024/04/01 11:10:19;;;;;;;;;;;12.70;85.10;;;;;;5093733;28;20402;-68
2024/04/01 11:12:57;;;;;;;;;;;12.90;84.90;;;;;;5090145;28;19954;-68
2024/04/01 11:15:30;;;;;;;;;;;12.90;84.70;;;;;;5081442;28;20010;-68
2024/04/01 11:18:11;;;;;;;;;;;12.90;84.50;;;;;;5073992;28;19931;-67
2024/04/01 11:20:47;;;;;;;;;;;12.90;84.60;;;;;;5094874;28;19927;-68
2024/04/01 11:23:44;;;;;;;;;;;12.90;84.60;;;;;;5094295;28;19932;-69
2024/04/01 11:26:32;;;;;;;;;;;12.90;84.40;;;;;;5083328;28;19935;-67
2024/04/01 11:29:12;;;;;;;;;;;12.80;84.30;;;;;;5092043;28;19928;-68
2024/04/01 11:31:59;;;;;;;;;;;12.80;84.10;;;;;;5088213;28;20542;-69
2024/04/01 11:34:44;;;;;;;;;;;12.70;84.00;;;;;;5089737;28;20264;-62
2024/04/01 11:37:23;;;;;;;;;;;12.60;83.60;;;;;;5085361;28;19932;-62
2024/04/01 11:39:56;;;;;;;;;;;12.60;83.90;;;;;;5091304;28;19971;-61
2024/04/01 11:42:30;;;;;;;;;;;12.40;83.90;;;;;;5092263;28;20426;-61
2024/04/01 11:45:05;;;;;;;;;;;12.40;83.40;;;;;;5097505;28;19934;-60
2024/04/01 11:47:32;;;;;;;;;;;12.40;83.50;;;;;;5096807;28;19935;-62
2024/04/01 11:50:12;;;;;;;;;;;12.40;83.30;;;;;;5097310;28;19928;-60
2024/04/01 11:52:57;;;;;;;;;;;12.30;83.20;;;;;;5097112;28;19960;-61
2024/04/01 11:55:30;;;;;;;;;;;12.40;83.20;;;;;;5099497;28;19924;-62
2024/04/01 11:58:11;;;;;;;;;;;12.40;83.30;;;;;;5098622;28;19935;-61
2024/04/01 12:00:49;;;;;;;;;;;12.50;83.30;;;;;;5096874;28;19931;-62
2024/04/01 12:03:23;;;;;;;;;;;12.50;83.20;;;;;;5100294;28;19931;-62
2024/04/01 12:05:55;;;;;;;;;;;12.50;82.80;;;;;;5100445;28;19971;-61
2024/04/01 12:08:30;;;;;;;;;;;12.40;82.40;;;;;;5099526;28;19931;-62
2024/04/01 12:11:05;;;;;;;;;;;12.40;82.30;;;;;;5099557;28;19924;-62
2024/04/01 12:13:40;;;;;;;;;;;12.30;82.50;;;;;;5098670;28;19928;-61
2024/04/01 12:16:13;;;;;;;;;;;12.30;82.40;;;;;;5099655;28;19931;-62
2024/04/01 12:18:48;;;;;;;;;;;12.30;82.50;;;;;;5090634;28;19931;-61
2024/04/01 12:21:21;;;;;;;;;;;12.20;82.50;;;;;;5091131;28;19928;-60
2024/04/01 12:23:55;;;;;;;;;;;12.20;82.50;;;;;;5095842;28;19939;-62
2024/04/01 12:26:37;;;;;;;;;;;12.20;82.50;;;;;;5094439;28;19930;-62
2024/04/01 12:29:13;;;;;;;;;;;12.30;82.40;;;;;;5092871;28;19943;-62
2024/04/01 12:31:45;;;;;;;;;;;12.20;82.10;;;;;;5095762;28;20202;-62
2024/04/01 12:34:18;;;;;;;;;;;12.20;82.00;;;;;;5093396;28;19924;-62
2024/04/01 12:36:52;;;;;;;;;;;12.30;82.20;;;;;;5098860;28;19942;-62
2024/04/01 12:39:28;;;;;;;;;;;12.40;82.00;;;;;;5095124;28;20010;-61
2024/04/01 12:42:09;;;;;;;;;;;12.40;81.80;;;;;;5098244;28;19932;-62
2024/04/01 12:44:44;;;;;;;;;;;12.40;81.50;;;;;;5093715;28;19939;-61
2024/04/01 12:47:34;;;;;;;;;;;12.40;81.70;;;;;;5095905;28;21570;-62
2024/04/01 12:50:15;;;;;;;;;;;12.40;81.80;;;;;;5100559;28;19931;-61
2024/04/01 12:52:52;;;;;;;;;;;12.40;81.70;;;;;;5098307;28;19934;-62
2024/04/01 12:55:28;;;;;;;;;;;12.30;81.40;;;;;;5094860;28;19932;-61
2024/04/01 12:58:09;;;;;;;;;;;12.30;81.80;;;;;;5093353;28;20031;-62
2024/04/01 13:00:44;;;;;;;;;;;12.30;82.10;;;;;;5097164;28;20333;-62
2024/04/01 13:03:37;;;;;;;;;;;12.30;82.20;;;;;;5095244;28;20353;-61
2024/04/01 13:06:17;;;;;;;;;;;12.40;82.40;;;;;;5095744;28;19939;-61
2024/04/01 13:08:54;;;;;;;;;;;12.40;82.40;;;;;;5095570;28;19928;-61
2024/04/01 13:11:34;;;;;;;;;;;12.40;82.40;;;;;;5095678;28;19928;-61
2024/04/01 13:14:19;;;;;;;;;;;12.40;82.40;;;;;;5097992;28;19938;-63
2024/04/01 13:39:23;;;;;;;;;;;12.50;82.70;;;;;;5093656;28;19927;-67
2024/04/01 13:42:01;;;;;;;;;;;12.30;83.40;;;;;;5099310;28;20286;-61
2024/04/01 13:44:42;;;;;;;;;;;12.20;83.80;;;;;;5092939;28;20449;-62
2024/04/01 13:47:20;;;;;;;;;;;12.20;84.00;;;;;;5088602;28;19940;-62
2024/04/01 13:50:01;;;;;;;;;;;12.20;83.80;;;;;;5094937;28;19923;-61
2024/04/01 13:52:41;;;;;;;;;;;12.20;83.50;;;;;;5089327;28;19931;-62
2024/04/01 13:55:18;;;;;;;;;;;12.20;83.20;;;;;;5094359;28;19946;-69
2024/04/01 13:57:58;;;;;;;;;;;12.20;82.90;;;;;;5094274;28;19927;-68
2024/04/01 14:00:35;;;;;;;;;;;12.20;82.90;;;;;;5092578;28;20456;-69
2024/04/01 14:03:25;;;;;;;;;;;12.20;82.80;;;;;;5095633;28;19976;-67
2024/04/01 14:06:09;;;;;;;;;;;12.20;82.90;;;;;;5094805;28;20366;-68
2024/04/01 14:08:46;;;;;;;;;;;12.20;82.40;;;;;;5084652;28;19928;-68
2024/04/01 14:11:24;;;;;;;;;;;12.20;82.70;;;;;;5087956;28;20394;-68
2024/04/01 14:14:01;;;;;;;;;;;12.20;82.50;;;;;;5094120;28;19928;-68
2024/04/01 14:16:39;;;;;;;;;;;12.10;82.40;;;;;;5093715;28;19931;-68
2024/04/01 14:19:15;;;;;;;;;;;12.20;82.30;;;;;;5081782;28;20443;-68
2024/04/01 14:21:48;;;;;;;;;;;12.20;82.20;;;;;;5090959;28;19928;-69
2024/04/01 14:24:15;;;;;;;;;;;12.20;82.30;;;;;;5093773;28;19924;-68
2024/04/01 14:26:49;;;;;;;;;;;12.20;82.30;;;;;;5094387;28;19931;-68
2024/04/01 14:29:23;;;;;;;;;;;12.20;82.30;;;;;;5090164;28;20675;-68
2024/04/01 14:31:55;;;;;;;;;;;12.10;82.10;;;;;;5092526;28;19939;-68
2024/04/01 14:34:28;;;;;;;;;;;12.00;82.10;;;;;;5093664;28;19923;-68
2024/04/01 14:37:01;;;;;;;;;;;12.00;82.30;;;;;;5084719;28;19928;-69
2024/04/01 14:39:34;;;;;;;;;;;11.90;82.50;;;;;;5092708;28;19939;-69
2024/04/01 14:42:09;;;;;;;;;;;11.80;82.50;;;;;;5095695;28;19939;-67
2024/04/01 14:44:41;;;;;;;;;;;11.90;82.30;;;;;;5086455;28;19924;-68
2024/04/01 14:47:14;;;;;;;;;;;11.80;82.50;;;;;;5090256;28;19974;-68
2024/04/01 14:49:46;;;;;;;;;;;11.90;82.60;;;;;;5093470;28;19924;-69
2024/04/01 14:52:26;;;;;;;;;;;12.00;82.50;;;;;;5091101;28;19928;-68
2024/04/01 14:54:58;;;;;;;;;;;12.00;82.20;;;;;;5089727;28;19928;-68
2024/04/01 14:57:34;;;;;;;;;;;12.00;81.70;;;;;;5092193;28;20015;-69
2024/04/01 15:00:07;;;;;;;;;;;12.00;81.40;;;;;;5094065;28;19978;-68
2024/04/01 15:02:40;;;;;;;;;;;12.00;81.70;;;;;;5089611;28;19927;-68
2024/04/01 15:05:14;;;;;;;;;;;12.10;81.90;;;;;;5091162;28;19928;-64
2024/04/01 15:07:41;;;;;;;;;;;12.10;82.30;;;;;;5093649;28;20430;-63
2024/04/01 15:10:15;;;;;;;;;;;12.10;82.20;;;;;;5090774;28;20006;-63
2024/04/01 15:12:49;;;;;;;;;;;12.10;82.10;;;;;;5088553;28;19930;-64
2024/04/01 15:15:25;;;;;;;;;;;12.20;81.70;;;;;;5071189;28;19928;-63
2024/04/01 15:17:57;;;;;;;;;;;12.20;81.80;;;;;;5092759;28;19928;-64
2024/04/01 15:20:37;;;;;;;;;;;12.20;81.90;;;;;;5093242;28;19924;-64
2024/04/01 15:23:10;;;;;;;;;;;12.30;82.00;;;;;;5099556;28;20328;-64
2024/04/01 15:25:45;;;;;;;;;;;12.20;82.00;;;;;;5091803;28;19933;-62
2024/04/01 15:28:18;;;;;;;;;;;12.20;81.80;;;;;;5093744;28;19992;-64